Time;durP1;ratioP1;P1;durP2;ratioP2;P2;SDS_P1;SDS_P2;PMS_P1;PMS_P2;Temp;Humidity;BMP_temperature;BMP_pressure;BME280_temperature;BME280_humidity;BME280_pressure;Samples;Min_cycle;Max_cycle;Signal;HPM_P1;HPM_P2
2021/12/30 00:00:25;;;;;;;1.60;0.70;;;11.90;99.90;;;;;;4992520;28;20567;-66
2021/12/30 00:02:50;;;;;;;2.03;0.90;;;11.90;99.90;;;;;;4992492;28;20180;-65
2021/12/30 00:05:16;;;;;;;1.47;1.20;;;11.90;99.90;;;;;;4991996;28;20466;-65
2021/12/30 00:07:42;;;;;;;1.00;0.90;;;11.80;99.90;;;;;;4992426;28;20695;-65
2021/12/30 00:10:09;;;;;;;0.60;0.60;;;11.80;99.90;;;;;;4992379;28;20187;-66
2021/12/30 00:12:35;;;;;;;0.90;0.80;;;11.70;99.90;;;;;;4992263;28;21018;-65
2021/12/30 00:15:01;;;;;;;0.97;0.90;;;11.70;99.90;;;;;;4992030;28;20451;-66
2021/12/30 00:17:27;;;;;;;2.10;0.70;;;11.70;99.90;;;;;;4992293;28;20262;-66
2021/12/30 00:19:52;;;;;;;0.90;0.80;;;11.70;99.90;;;;;;4990941;28;20854;-66
2021/12/30 00:22:18;;;;;;;2.23;1.70;;;11.80;99.90;;;;;;4992169;28;20183;-66
2021/12/30 00:24:44;;;;;;;2.20;0.80;;;11.80;99.90;;;;;;4992258;28;20184;-65
2021/12/30 00:27:09;;;;;;;2.40;0.93;;;11.80;99.90;;;;;;4991810;28;20700;-65
2021/12/30 00:29:36;;;;;;;1.07;0.70;;;11.80;99.90;;;;;;4992146;28;20473;-65
2021/12/30 00:32:03;;;;;;;1.23;0.93;;;11.80;99.90;;;;;;4992232;28;20218;-65
2021/12/30 00:34:29;;;;;;;1.00;0.80;;;11.80;99.90;;;;;;4992162;28;20477;-65
2021/12/30 00:36:54;;;;;;;1.10;0.80;;;11.70;99.90;;;;;;4991787;28;20423;-65
2021/12/30 00:39:20;;;;;;;1.90;0.70;;;11.80;99.90;;;;;;4992182;28;20221;-65
2021/12/30 00:41:45;;;;;;;0.70;0.67;;;11.70;99.90;;;;;;4991972;28;20195;-66
2021/12/30 00:44:11;;;;;;;1.13;0.73;;;11.70;99.90;;;;;;4992069;28;20179;-65
2021/12/30 00:46:37;;;;;;;1.30;0.90;;;11.70;99.90;;;;;;4993405;28;20571;-65
2021/12/30 00:49:03;;;;;;;1.00;0.77;;;11.70;99.90;;;;;;4995513;28;20164;-65
2021/12/30 00:51:29;;;;;;;1.27;0.90;;;11.70;99.90;;;;;;4995424;28;20190;-65
2021/12/30 00:53:54;;;;;;;2.80;1.07;;;11.70;99.90;;;;;;4995472;28;20427;-65
2021/12/30 00:56:20;;;;;;;0.80;0.80;;;11.80;99.90;;;;;;4995074;28;20217;-65
2021/12/30 00:58:46;;;;;;;1.43;0.90;;;11.80;99.90;;;;;;4995381;28;20263;-65
2021/12/30 01:01:11;;;;;;;1.13;1.03;;;11.80;99.90;;;;;;4995231;28;20281;-65
2021/12/30 01:03:38;;;;;;;1.97;1.70;;;11.70;99.90;;;;;;4995268;28;20176;-65
2021/12/30 01:06:03;;;;;;;5.00;1.03;;;11.60;99.90;;;;;;4995011;28;20599;-65
2021/12/30 01:08:30;;;;;;;2.20;1.07;;;11.60;99.90;;;;;;4995155;28;20418;-65
2021/12/30 01:10:56;;;;;;;0.80;0.80;;;11.60;99.90;;;;;;4995005;28;20192;-65
2021/12/30 01:13:27;;;;;;;3.80;1.13;;;11.60;99.90;;;;;;4995114;28;20509;-65
2021/12/30 01:16:00;;;;;;;1.10;1.00;;;11.60;99.90;;;;;;4994809;28;20477;-65
2021/12/30 01:18:39;;;;;;;0.77;0.77;;;11.60;99.90;;;;;;4995000;28;20431;-65
2021/12/30 01:21:08;;;;;;;3.67;1.27;;;11.50;99.90;;;;;;4994752;28;20462;-65
2021/12/30 01:23:34;;;;;;;0.90;0.80;;;11.50;99.90;;;;;;4994761;28;20866;-65
2021/12/30 01:26:00;;;;;;;1.33;0.97;;;11.50;99.90;;;;;;4994498;28;20458;-65
2021/12/30 01:28:27;;;;;;;0.73;0.73;;;11.50;99.90;;;;;;4994853;28;20586;-65
2021/12/30 01:30:53;;;;;;;2.13;1.10;;;11.50;99.90;;;;;;4994702;28;20210;-66
2021/12/30 01:33:18;;;;;;;0.80;0.80;;;11.50;99.90;;;;;;4994714;28;20419;-65
2021/12/30 01:35:44;;;;;;;1.27;1.17;;;11.40;99.90;;;;;;4994404;28;20419;-65
2021/12/30 01:38:12;;;;;;;2.63;1.10;;;11.40;99.90;;;;;;4994539;28;20186;-65
2021/12/30 01:40:40;;;;;;;1.80;1.20;;;11.40;99.90;;;;;;4994587;28;20234;-65
2021/12/30 01:43:07;;;;;;;2.23;1.40;;;11.40;99.90;;;;;;4994500;28;20509;-65
2021/12/30 01:45:33;;;;;;;1.00;0.90;;;11.40;99.90;;;;;;4994139;28;20462;-65
2021/12/30 01:47:58;;;;;;;1.83;0.80;;;11.40;99.90;;;;;;4994405;28;20474;-65
2021/12/30 01:50:25;;;;;;;1.30;1.17;;;11.50;99.90;;;;;;4994330;28;20757;-65
2021/12/30 01:52:51;;;;;;;1.57;1.00;;;11.50;99.90;;;;;;4994369;28;20207;-65
2021/12/30 01:55:19;;;;;;;1.27;0.80;;;11.50;99.90;;;;;;4994044;28;20449;-65
2021/12/30 01:57:47;;;;;;;1.33;0.90;;;11.40;99.90;;;;;;4993343;28;20514;-65
2021/12/30 02:00:17;;;;;;;1.30;1.03;;;11.40;99.90;;;;;;4994204;28;20851;-65
2021/12/30 02:02:43;;;;;;;1.20;1.10;;;11.40;99.90;;;;;;4994235;28;20796;-65
2021/12/30 02:05:09;;;;;;;2.37;1.03;;;11.40;99.90;;;;;;4993625;28;20419;-65
2021/12/30 02:07:35;;;;;;;2.23;2.00;;;11.40;99.90;;;;;;4994266;28;20789;-64
2021/12/30 02:10:02;;;;;;;2.20;1.07;;;11.40;99.90;;;;;;4994037;28;20223;-66
2021/12/30 02:12:30;;;;;;;4.37;1.23;;;11.40;99.90;;;;;;4993982;28;20497;-65
2021/12/30 02:14:56;;;;;;;2.47;1.50;;;11.40;99.90;;;;;;4993861;28;20449;-65
2021/12/30 02:17:22;;;;;;;1.10;0.87;;;11.40;99.90;;;;;;4993778;28;20549;-65
2021/12/30 02:19:47;;;;;;;4.00;1.60;;;11.50;99.90;;;;;;4993922;28;20262;-65
2021/12/30 02:22:13;;;;;;;1.20;1.10;;;11.50;99.90;;;;;;4993755;28;20191;-65
2021/12/30 02:24:49;;;;;;;2.00;1.10;;;11.50;99.90;;;;;;4993777;28;20221;-65
2021/12/30 02:27:15;;;;;;;1.67;1.10;;;11.50;99.90;;;;;;4993366;28;20616;-65
2021/12/30 02:29:40;;;;;;;6.63;1.57;;;11.50;99.90;;;;;;4993595;28;20415;-65
2021/12/30 02:32:06;;;;;;;1.67;1.40;;;11.40;99.90;;;;;;4993462;28;20174;-65
2021/12/30 02:34:33;;;;;;;3.50;0.90;;;11.40;99.90;;;;;;4993572;28;20222;-65
2021/12/30 02:36:58;;;;;;;1.70;1.13;;;11.40;99.90;;;;;;4993228;28;20187;-65
2021/12/30 02:39:24;;;;;;;2.33;1.30;;;11.40;99.90;;;;;;4993548;28;20426;-65
2021/12/30 02:41:51;;;;;;;0.97;0.83;;;11.40;99.90;;;;;;4993381;28;20677;-65
2021/12/30 02:44:18;;;;;;;4.20;1.23;;;11.40;99.90;;;;;;4993423;28;20513;-65
2021/12/30 02:46:43;;;;;;;2.37;1.17;;;11.40;99.90;;;;;;4992845;28;20600;-65
2021/12/30 02:49:09;;;;;;;1.93;1.20;;;11.30;99.90;;;;;;4993530;28;20461;-65
2021/12/30 02:51:36;;;;;;;1.67;1.23;;;11.40;99.90;;;;;;4993210;28;20434;-65
2021/12/30 02:54:03;;;;;;;1.23;0.80;;;11.40;99.90;;;;;;4993317;28;20222;-65
2021/12/30 02:56:29;;;;;;;5.60;1.33;;;11.40;99.90;;;;;;4992905;28;20784;-65
2021/12/30 02:58:55;;;;;;;2.00;0.93;;;11.50;99.90;;;;;;4993200;28;20425;-65
2021/12/30 03:01:29;;;;;;;2.20;1.30;;;11.50;99.90;;;;;;4992938;28;20434;-65
2021/12/30 03:03:56;;;;;;;1.33;1.10;;;11.50;99.90;;;;;;4993136;28;20207;-65
2021/12/30 03:06:23;;;;;;;2.83;1.47;;;11.50;99.90;;;;;;4992640;28;20984;-65
2021/12/30 03:08:51;;;;;;;3.30;1.40;;;11.60;99.90;;;;;;4992827;28;20502;-65
2021/12/30 03:11:18;;;;;;;3.67;1.50;;;11.50;99.90;;;;;;4992866;28;20850;-65
2021/12/30 03:13:44;;;;;;;2.13;1.40;;;11.50;99.90;;;;;;4993190;28;20988;-65
2021/12/30 03:16:14;;;;;;;3.30;1.30;;;11.60;99.90;;;;;;4992556;28;20458;-65
2021/12/30 03:18:41;;;;;;;2.47;1.50;;;11.60;99.90;;;;;;4992903;28;20518;-65
2021/12/30 03:21:08;;;;;;;3.80;1.60;;;11.60;99.90;;;;;;4992671;28;20462;-65
2021/12/30 03:23:34;;;;;;;1.30;1.20;;;11.70;99.90;;;;;;4992859;28;20505;-65
2021/12/30 03:26:00;;;;;;;3.17;1.80;;;11.70;99.90;;;;;;4992405;28;21055;-65
2021/12/30 03:28:26;;;;;;;1.70;1.37;;;11.70;99.90;;;;;;4992760;28;20175;-65
2021/12/30 03:30:51;;;;;;;1.77;1.10;;;11.70;99.90;;;;;;4992597;28;20481;-65
2021/12/30 03:33:20;;;;;;;2.37;1.27;;;11.80;99.90;;;;;;4992719;28;20159;-66
2021/12/30 03:35:46;;;;;;;3.37;1.73;;;11.80;99.90;;;;;;4992333;28;20167;-64
2021/12/30 03:38:11;;;;;;;3.87;1.80;;;11.80;99.90;;;;;;4992657;28;20414;-65
2021/12/30 03:40:37;;;;;;;2.17;1.30;;;11.80;99.90;;;;;;4992568;28;20442;-65
2021/12/30 03:43:03;;;;;;;2.30;2.07;;;11.80;99.90;;;;;;4992605;28;20189;-65
2021/12/30 03:45:29;;;;;;;2.50;1.30;;;11.80;99.90;;;;;;4992246;28;20207;-65
2021/12/30 03:47:54;;;;;;;3.07;1.30;;;11.80;99.90;;;;;;4992614;28;20174;-65
2021/12/30 03:50:24;;;;;;;1.70;1.60;;;11.80;99.90;;;;;;4992433;28;20524;-65
2021/12/30 03:52:53;;;;;;;1.63;1.30;;;11.80;99.90;;;;;;4992668;28;20183;-65
2021/12/30 03:55:20;;;;;;;2.43;1.10;;;11.80;99.90;;;;;;4992201;28;20415;-65
2021/12/30 03:57:47;;;;;;;1.83;1.20;;;11.80;99.90;;;;;;4992488;28;21537;-65
2021/12/30 04:00:14;;;;;;;3.23;1.10;;;11.80;99.90;;;;;;4992347;28;20807;-66
2021/12/30 04:02:40;;;;;;;1.30;1.00;;;11.80;99.90;;;;;;4992426;28;20418;-65
2021/12/30 04:05:07;;;;;;;4.87;1.47;;;11.70;99.90;;;;;;4992063;28;20454;-65
2021/12/30 04:07:33;;;;;;;2.10;1.10;;;11.70;99.90;;;;;;4992362;28;20415;-64
2021/12/30 04:09:58;;;;;;;0.90;0.90;;;11.70;99.90;;;;;;4992311;28;20449;-65
2021/12/30 04:12:24;;;;;;;2.03;1.10;;;11.80;99.90;;;;;;4992331;28;20180;-65
2021/12/30 04:14:49;;;;;;;1.00;1.00;;;11.80;99.90;;;;;;4991793;28;20255;-65
2021/12/30 04:17:15;;;;;;;2.60;1.37;;;11.80;99.90;;;;;;4992135;28;20218;-65
2021/12/30 04:19:46;;;;;;;1.30;1.20;;;11.80;99.90;;;;;;4992246;28;20190;-65
2021/12/30 04:22:14;;;;;;;3.23;1.03;;;11.70;99.90;;;;;;4994863;28;20732;-65
2021/12/30 04:24:40;;;;;;;1.90;1.23;;;11.70;99.90;;;;;;4996034;28;20987;-65
2021/12/30 04:27:05;;;;;;;1.40;1.30;;;11.60;99.90;;;;;;4995514;28;20462;-65
2021/12/30 04:29:31;;;;;;;1.23;1.00;;;11.60;99.90;;;;;;4995787;28;20247;-65
2021/12/30 04:31:57;;;;;;;1.47;1.13;;;11.60;99.90;;;;;;4995856;28;20212;-65
2021/12/30 04:34:23;;;;;;;1.00;0.93;;;11.60;99.90;;;;;;4995820;28;20176;-65
2021/12/30 04:36:48;;;;;;;3.37;1.67;;;11.60;99.90;;;;;;4995374;28;20410;-65
2021/12/30 04:39:14;;;;;;;2.60;1.10;;;11.60;99.90;;;;;;4996002;28;20184;-65
2021/12/30 04:41:40;;;;;;;1.27;1.17;;;11.60;99.90;;;;;;4995655;28;20222;-65
2021/12/30 04:44:05;;;;;;;3.13;0.90;;;11.60;99.90;;;;;;4995618;28;20179;-65
2021/12/30 04:46:33;;;;;;;2.50;1.20;;;11.60;99.90;;;;;;4995303;28;20261;-65
2021/12/30 04:48:58;;;;;;;2.20;1.60;;;11.60;99.90;;;;;;4995609;28;20168;-65
2021/12/30 04:51:24;;;;;;;1.87;1.00;;;11.60;99.90;;;;;;4995367;28;20489;-65
2021/12/30 04:53:49;;;;;;;1.70;1.27;;;11.60;99.90;;;;;;4995657;28;20525;-65
2021/12/30 04:56:15;;;;;;;1.43;0.93;;;11.60;99.90;;;;;;4995180;28;20218;-65
2021/12/30 04:58:40;;;;;;;1.10;1.00;;;11.60;99.90;;;;;;4995341;28;20183;-65
2021/12/30 05:01:06;;;;;;;1.93;0.90;;;11.50;99.90;;;;;;4995287;28;20195;-65
2021/12/30 05:03:31;;;;;;;1.93;1.10;;;11.50;99.90;;;;;;4995299;28;20210;-65
2021/12/30 05:05:58;;;;;;;0.90;0.70;;;11.60;99.90;;;;;;4994768;28;20278;-65
2021/12/30 05:08:25;;;;;;;1.20;1.10;;;11.50;99.90;;;;;;4995247;28;20171;-65
2021/12/30 05:10:51;;;;;;;0.80;0.80;;;11.50;99.90;;;;;;4995111;28;20457;-65
2021/12/30 05:13:18;;;;;;;1.20;0.83;;;11.60;99.90;;;;;;4995079;28;20414;-65
2021/12/30 05:15:46;;;;;;;0.93;0.90;;;11.60;99.90;;;;;;4994843;28;20461;-65
2021/12/30 05:18:14;;;;;;;2.40;0.80;;;11.60;99.90;;;;;;4995038;28;20446;-65
2021/12/30 05:20:41;;;;;;;0.80;0.80;;;11.60;99.90;;;;;;4994761;28;21027;-65
2021/12/30 05:23:07;;;;;;;1.00;0.90;;;11.60;99.90;;;;;;4994929;28;20928;-65
2021/12/30 05:25:33;;;;;;;1.07;0.97;;;11.60;99.90;;;;;;4994564;28;20533;-65
2021/12/30 05:27:59;;;;;;;1.50;0.70;;;11.60;99.90;;;;;;4994746;28;21032;-65
2021/12/30 05:30:25;;;;;;;1.47;0.93;;;11.60;99.90;;;;;;4994764;28;20570;-65
2021/12/30 05:32:53;;;;;;;1.00;0.80;;;11.60;99.90;;;;;;4994647;28;20218;-65
2021/12/30 05:35:19;;;;;;;0.60;0.60;;;11.60;99.90;;;;;;4994448;28;20806;-65
2021/12/30 05:37:45;;;;;;;0.60;0.50;;;11.60;99.90;;;;;;4994608;28;20435;-65
2021/12/30 05:40:14;;;;;;;2.00;0.70;;;11.60;99.90;;;;;;4994613;28;20438;-65
2021/12/30 05:42:40;;;;;;;1.33;0.70;;;11.60;99.90;;;;;;4994603;28;20880;-65
2021/12/30 05:45:06;;;;;;;0.90;0.60;;;11.60;99.90;;;;;;4994217;28;20451;-65
2021/12/30 05:47:33;;;;;;;0.80;0.70;;;11.60;99.90;;;;;;4994486;28;20167;-65
2021/12/30 05:50:08;;;;;;;0.90;0.60;;;11.60;99.90;;;;;;4994380;28;20505;-65
2021/12/30 05:52:34;;;;;;;1.33;0.70;;;11.70;99.90;;;;;;4994450;28;20422;-65
2021/12/30 05:55:01;;;;;;;1.43;0.70;;;11.70;99.90;;;;;;4994250;28;20848;-64
2021/12/30 05:57:26;;;;;;;0.80;0.70;;;11.70;99.90;;;;;;4994246;28;20920;-65
2021/12/30 05:59:52;;;;;;;0.80;0.80;;;11.70;99.90;;;;;;4994174;28;20446;-65
2021/12/30 06:02:17;;;;;;;5.03;0.80;;;11.70;99.90;;;;;;4994128;28;20214;-65
2021/12/30 06:04:43;;;;;;;0.73;0.67;;;11.70;99.90;;;;;;4994147;28;20184;-65
2021/12/30 06:07:10;;;;;;;0.70;0.60;;;11.70;99.90;;;;;;4993711;28;20222;-65
2021/12/30 06:09:36;;;;;;;0.57;0.57;;;11.70;99.90;;;;;;4994007;28;20414;-65
2021/12/30 06:12:02;;;;;;;1.87;0.50;;;11.70;99.90;;;;;;4994036;28;20417;-65
2021/12/30 06:14:27;;;;;;;1.10;0.70;;;11.80;99.90;;;;;;4993466;28;20411;-65
2021/12/30 06:16:53;;;;;;;0.50;0.40;;;11.70;99.90;;;;;;4993775;28;20263;-65
2021/12/30 06:19:18;;;;;;;0.50;0.50;;;11.70;99.90;;;;;;4993935;28;20758;-65
2021/12/30 06:21:44;;;;;;;0.60;0.60;;;11.70;99.90;;;;;;4993521;28;20223;-65
2021/12/30 06:24:09;;;;;;;4.13;0.60;;;11.70;99.90;;;;;;4993716;28;20203;-65
2021/12/30 06:26:35;;;;;;;0.60;0.60;;;11.70;99.90;;;;;;4993463;28;20226;-65
2021/12/30 06:29:01;;;;;;;0.60;0.60;;;11.70;99.90;;;;;;4993735;28;20179;-65
2021/12/30 06:31:26;;;;;;;0.50;0.50;;;11.70;99.90;;;;;;4993753;28;20696;-65
2021/12/30 06:33:52;;;;;;;1.67;0.70;;;11.70;99.90;;;;;;4993608;28;20203;-65
2021/12/30 06:36:21;;;;;;;1.23;1.00;;;11.70;99.90;;;;;;4993234;28;20211;-66
2021/12/30 06:38:47;;;;;;;0.93;0.70;;;11.70;99.90;;;;;;4993474;28;20255;-66
2021/12/30 06:41:12;;;;;;;1.57;0.70;;;11.70;99.90;;;;;;4993338;28;20958;-65
2021/12/30 06:43:39;;;;;;;1.10;0.80;;;11.70;99.90;;;;;;4992944;28;20426;-65
2021/12/30 06:46:05;;;;;;;2.00;1.00;;;11.70;99.90;;;;;;4993114;28;20563;-65
2021/12/30 06:48:31;;;;;;;5.73;3.23;;;11.70;99.90;;;;;;4993452;28;20443;-65
2021/12/30 06:50:59;;;;;;;8.10;5.60;;;11.70;99.90;;;;;;4993249;28;20863;-66
2021/12/30 06:53:25;;;;;;;3.47;2.67;;;11.70;99.90;;;;;;4993232;28;20199;-66
2021/12/30 06:55:52;;;;;;;5.27;2.70;;;11.70;99.90;;;;;;4992865;28;20427;-66
2021/12/30 06:58:19;;;;;;;2.60;2.37;;;11.70;99.90;;;;;;4993221;28;20423;-65
2021/12/30 07:00:45;;;;;;;1.13;1.00;;;11.70;99.90;;;;;;4993122;28;20477;-65
2021/12/30 07:03:11;;;;;;;2.60;1.87;;;11.70;99.90;;;;;;4993091;28;20427;-66
2021/12/30 07:05:36;;;;;;;1.47;1.10;;;11.70;99.90;;;;;;4992700;28;20461;-66
2021/12/30 07:08:02;;;;;;;1.50;1.00;;;11.70;99.90;;;;;;4993046;28;20171;-66
2021/12/30 07:10:28;;;;;;;2.53;0.83;;;11.70;99.90;;;;;;4992989;28;20229;-66
2021/12/30 07:12:54;;;;;;;2.60;1.03;;;11.70;99.90;;;;;;4992907;28;20461;-66
2021/12/30 07:15:20;;;;;;;1.50;0.77;;;11.80;99.90;;;;;;4992460;28;20163;-65
2021/12/30 07:17:46;;;;;;;1.27;0.73;;;11.70;99.90;;;;;;4992867;28;20964;-66
2021/12/30 07:20:13;;;;;;;0.80;0.80;;;11.70;99.90;;;;;;4992572;28;20431;-66
2021/12/30 07:22:39;;;;;;;2.37;1.07;;;11.80;99.90;;;;;;4992940;28;20172;-66
2021/12/30 07:25:06;;;;;;;1.40;0.90;;;11.80;99.90;;;;;;4992465;28;20422;-66
2021/12/30 07:27:31;;;;;;;0.70;0.70;;;11.80;99.90;;;;;;4992671;28;20477;-66
2021/12/30 07:29:58;;;;;;;0.83;0.83;;;11.80;99.90;;;;;;4992755;28;20951;-66
2021/12/30 07:32:25;;;;;;;1.20;0.73;;;11.80;99.90;;;;;;4992747;28;20573;-66
2021/12/30 07:34:50;;;;;;;0.87;0.87;;;11.80;99.90;;;;;;4992640;28;20924;-66
2021/12/30 07:37:16;;;;;;;0.90;0.77;;;11.80;99.90;;;;;;4992467;28;20521;-66
2021/12/30 07:39:43;;;;;;;1.20;1.10;;;11.90;99.90;;;;;;4992564;28;20258;-66
2021/12/30 07:42:09;;;;;;;1.20;1.07;;;11.90;99.90;;;;;;4992605;28;20950;-66
2021/12/30 07:44:34;;;;;;;1.47;1.20;;;11.90;99.90;;;;;;4992592;28;20426;-66
2021/12/30 07:47:00;;;;;;;5.33;1.20;;;11.90;99.90;;;;;;4992236;28;20199;-66
2021/12/30 07:49:25;;;;;;;4.03;3.77;;;11.90;99.90;;;;;;4992652;28;20174;-66
2021/12/30 07:51:51;;;;;;;2.57;1.20;;;11.90;99.90;;;;;;4992481;28;20192;-66
2021/12/30 07:54:16;;;;;;;2.70;2.60;;;11.90;99.90;;;;;;4992456;28;20176;-66
2021/12/30 07:56:42;;;;;;;2.43;1.87;;;12.00;99.90;;;;;;4994338;28;20172;-66
2021/12/30 07:59:07;;;;;;;1.63;1.53;;;12.00;99.90;;;;;;4996464;28;20232;-66
2021/12/30 08:01:33;;;;;;;3.10;2.90;;;12.00;99.90;;;;;;4996431;28;20227;-66
2021/12/30 08:03:59;;;;;;;2.57;2.40;;;12.00;99.90;;;;;;4996352;28;20594;-66
2021/12/30 08:06:27;;;;;;;2.67;2.47;;;12.00;99.90;;;;;;4995949;28;20203;-66
2021/12/30 08:08:53;;;;;;;1.60;1.50;;;12.00;99.90;;;;;;4996278;28;20853;-66
2021/12/30 08:11:19;;;;;;;1.37;1.20;;;12.10;99.90;;;;;;4996209;28;20486;-66
2021/12/30 08:13:44;;;;;;;1.20;1.10;;;12.10;99.90;;;;;;4996300;28;20210;-66
2021/12/30 08:16:10;;;;;;;3.00;1.83;;;12.10;99.90;;;;;;4995870;28;20458;-66
2021/12/30 08:18:35;;;;;;;1.50;1.40;;;12.10;99.90;;;;;;4996104;28;20192;-66
2021/12/30 08:21:01;;;;;;;1.70;1.20;;;12.10;99.90;;;;;;4996006;28;20207;-66
2021/12/30 08:23:27;;;;;;;3.80;1.30;;;12.20;99.90;;;;;;4996028;28;20202;-66
2021/12/30 08:25:52;;;;;;;1.80;1.70;;;12.20;99.90;;;;;;4995591;28;20247;-66
2021/12/30 08:28:18;;;;;;;0.87;0.87;;;12.20;99.90;;;;;;4995979;28;20339;-66
2021/12/30 08:30:45;;;;;;;0.80;0.80;;;12.20;99.90;;;;;;4995830;28;20204;-66
2021/12/30 08:33:10;;;;;;;0.90;0.90;;;12.30;99.90;;;;;;4995886;28;20423;-66
2021/12/30 08:35:36;;;;;;;1.00;0.80;;;12.40;99.90;;;;;;4995551;28;20418;-66
2021/12/30 08:38:01;;;;;;;1.40;0.90;;;12.40;99.90;;;;;;4995765;28;20258;-65
2021/12/30 08:40:27;;;;;;;1.53;0.87;;;12.40;99.90;;;;;;4995650;28;20192;-66
2021/12/30 08:42:53;;;;;;;2.47;1.10;;;12.50;99.90;;;;;;4995708;28;20561;-66
2021/12/30 08:45:19;;;;;;;1.00;0.97;;;12.50;99.90;;;;;;4995296;28;20543;-65
2021/12/30 08:47:45;;;;;;;2.40;2.20;;;12.50;99.90;;;;;;4995616;28;20176;-66
2021/12/30 08:50:14;;;;;;;1.60;1.50;;;12.50;99.90;;;;;;4995487;28;20442;-66
2021/12/30 08:52:41;;;;;;;1.50;0.80;;;12.60;99.90;;;;;;4995516;28;20426;-66
2021/12/30 08:55:08;;;;;;;6.17;1.00;;;12.60;99.90;;;;;;4995275;28;20418;-66
2021/12/30 08:57:37;;;;;;;1.00;0.80;;;12.80;99.90;;;;;;4995441;28;20595;-65
2021/12/30 09:00:05;;;;;;;0.70;0.70;;;13.10;99.90;;;;;;4995315;28;20454;-66
2021/12/30 09:02:31;;;;;;;3.63;0.83;;;13.30;99.90;;;;;;4995381;28;20510;-66
2021/12/30 09:04:56;;;;;;;0.90;0.73;;;13.60;99.90;;;;;;4995386;28;20893;-66
2021/12/30 09:07:22;;;;;;;1.33;1.00;;;14.00;99.90;;;;;;4994511;28;20210;-66
2021/12/30 09:09:48;;;;;;;2.20;2.00;;;14.60;99.90;;;;;;4995148;28;20210;-66
2021/12/30 09:12:14;;;;;;;1.10;1.00;;;15.20;99.90;;;;;;4995167;28;20327;-66
2021/12/30 09:14:39;;;;;;;0.90;0.90;;;15.70;99.90;;;;;;4995083;28;20187;-66
2021/12/30 09:17:05;;;;;;;0.77;0.77;;;16.40;99.90;;;;;;4994783;28;20184;-66
2021/12/30 09:19:31;;;;;;;0.83;0.80;;;16.90;99.90;;;;;;4995027;28;20180;-66
2021/12/30 09:21:56;;;;;;;7.00;1.67;;;17.50;99.90;;;;;;4994968;28;20454;-66
2021/12/30 09:24:22;;;;;;;0.83;0.83;;;17.70;99.90;;;;;;4994980;28;20796;-66
2021/12/30 09:26:48;;;;;;;0.70;0.70;;;17.90;99.90;;;;;;4994515;28;20203;-66
2021/12/30 09:29:13;;;;;;;0.87;0.70;;;18.30;99.90;;;;;;4994820;28;20171;-66
2021/12/30 09:31:50;;;;;;;2.10;1.37;;;18.60;99.90;;;;;;4994953;28;20202;-66
2021/12/30 09:34:16;;;;;;;0.90;0.90;;;18.90;99.90;;;;;;4994866;28;20653;-66
2021/12/30 09:36:42;;;;;;;1.13;1.00;;;19.30;99.90;;;;;;4994393;28;20419;-66
2021/12/30 09:39:11;;;;;;;0.83;0.83;;;18.90;99.90;;;;;;4994679;28;20431;-66
2021/12/30 09:41:43;;;;;;;0.87;0.87;;;18.80;99.90;;;;;;4994496;28;20508;-66
2021/12/30 09:44:10;;;;;;;1.13;0.80;;;18.30;99.90;;;;;;4994560;28;20423;-66
2021/12/30 09:46:36;;;;;;;3.70;1.17;;;18.00;99.90;;;;;;4994270;28;20569;-66
2021/12/30 09:49:04;;;;;;;1.40;1.30;;;18.00;99.90;;;;;;4994508;28;20445;-66
2021/12/30 09:51:30;;;;;;;3.40;3.00;;;18.20;99.90;;;;;;4994322;28;20435;-66
2021/12/30 09:53:56;;;;;;;1.27;1.10;;;18.50;99.90;;;;;;4994324;28;20920;-66
2021/12/30 09:56:22;;;;;;;3.30;1.53;;;18.70;99.90;;;;;;4993991;28;20944;-66
2021/12/30 09:58:48;;;;;;;0.70;0.70;;;18.80;99.90;;;;;;4994351;28;20176;-66
2021/12/30 10:01:15;;;;;;;0.83;0.70;;;18.40;99.90;;;;;;4994202;28;20336;-66
2021/12/30 10:03:42;;;;;;;0.80;0.80;;;18.10;99.90;;;;;;4994346;28;20441;-66
2021/12/30 10:06:09;;;;;;;1.00;0.90;;;17.90;99.90;;;;;;4993772;28;20469;-66
2021/12/30 10:08:40;;;;;;;0.70;0.70;;;18.30;99.90;;;;;;4994126;28;20446;-66
2021/12/30 10:11:12;;;;;;;0.97;0.90;;;18.70;99.90;;;;;;4994001;28;20438;-66
2021/12/30 10:13:41;;;;;;;1.17;0.87;;;19.20;99.90;;;;;;4994036;28;20422;-66
2021/12/30 10:16:12;;;;;;;0.93;0.93;;;18.90;99.90;;;;;;4993728;28;20476;-66
2021/12/30 10:18:45;;;;;;;0.90;0.90;;;18.30;99.90;;;;;;4993134;28;20423;-66
2021/12/30 10:21:19;;;;;;;1.80;0.93;;;17.60;99.90;;;;;;4994088;28;20841;-66
2021/12/30 10:23:51;;;;;;;0.80;0.80;;;17.90;99.90;;;;;;4993871;28;20423;-66
2021/12/30 10:26:17;;;;;;;1.17;0.90;;;18.40;99.90;;;;;;4993517;28;20883;-66
2021/12/30 10:28:44;;;;;;;1.07;0.97;;;18.90;99.90;;;;;;4993760;28;20427;-66
2021/12/30 10:31:12;;;;;;;4.63;4.20;;;19.20;99.90;;;;;;4993612;28;20474;-66
2021/12/30 10:33:48;;;;;;;6.87;6.27;;;19.30;99.90;;;;;;4993622;28;20450;-66
2021/12/30 10:36:36;;;;;;;1.53;1.20;;;20.40;99.90;;;;;;4993469;28;20823;-66
2021/12/30 10:39:19;;;;;;;0.73;0.73;;;20.10;99.90;;;;;;4993501;28;20924;-66
2021/12/30 10:41:47;;;;;;;2.53;1.90;;;20.40;99.90;;;;;;4993480;28;20481;-66
2021/12/30 10:44:13;;;;;;;1.70;1.37;;;21.60;99.90;;;;;;4993342;28;20423;-67
2021/12/30 10:46:39;;;;;;;0.97;0.97;;;22.00;99.90;;;;;;4993118;28;20512;-67
2021/12/30 10:49:21;;;;;;;1.67;1.30;;;21.60;99.90;;;;;;4993318;28;20257;-67
2021/12/30 10:51:52;;;;;;;1.37;1.27;;;22.70;99.90;;;;;;4993182;28;20195;-67
2021/12/30 10:54:22;;;;;;;1.10;1.00;;;23.10;99.90;;;;;;4993161;28;20434;-67
2021/12/30 10:56:56;;;;;;;1.40;1.10;;;22.70;99.90;;;;;;4992848;28;20506;-66
2021/12/30 10:59:45;;;;;;;1.53;1.10;;;22.80;99.90;;;;;;4992660;28;20411;-67
2021/12/30 11:02:18;;;;;;;0.80;0.80;;;22.70;99.90;;;;;;4993089;28;20506;-67
2021/12/30 11:04:56;;;;;;;1.07;0.97;;;23.30;99.90;;;;;;4992375;28;20441;-67
2021/12/30 11:07:48;;;;;;;0.97;0.70;;;23.80;99.90;;;;;;4992757;28;20443;-67
2021/12/30 11:10:28;;;;;;;0.70;0.70;;;23.10;99.90;;;;;;4992391;28;20431;-67
2021/12/30 11:12:54;;;;;;;2.37;0.90;;;23.20;99.90;;;;;;4992796;28;20459;-66
2021/12/30 11:15:25;;;;;;;0.60;0.60;;;22.60;99.90;;;;;;4992113;28;20546;-67
2021/12/30 11:18:04;;;;;;;0.60;0.60;;;22.30;99.90;;;;;;4992930;28;20218;-67
2021/12/30 11:20:36;;;;;;;1.03;0.80;;;22.70;99.90;;;;;;4992173;28;20454;-67
2021/12/30 11:23:03;;;;;;;0.60;0.60;;;23.30;99.90;;;;;;4992924;28;20445;-67
2021/12/30 11:25:30;;;;;;;0.70;0.60;;;22.90;99.90;;;;;;4991988;28;20784;-65
2021/12/30 11:27:56;;;;;;;0.73;0.73;;;21.80;99.90;;;;;;4992731;28;20521;-67
2021/12/30 11:30:22;;;;;;;1.30;1.17;;;20.40;99.90;;;;;;4992147;28;20509;-66
2021/12/30 11:32:48;;;;;;;3.20;2.90;;;19.70;99.90;;;;;;4992764;28;20414;-65
2021/12/30 11:35:16;;;;;;;0.73;0.73;;;19.20;99.90;;;;;;4991871;28;20179;-66
2021/12/30 11:37:42;;;;;;;0.93;0.83;;;19.30;99.90;;;;;;4992713;28;20423;-66
2021/12/30 11:40:10;;;;;;;0.60;0.50;;;19.80;99.90;;;;;;4992194;28;20449;-67
2021/12/30 11:42:38;;;;;;;0.60;0.60;;;20.60;99.90;;;;;;4992531;28;20270;-66
2021/12/30 11:45:24;;;;;;;0.60;0.60;;;20.50;99.90;;;;;;4991776;28;20430;-67
2021/12/30 11:47:50;;;;;;;0.70;0.70;;;20.60;99.90;;;;;;4992718;28;20423;-66
2021/12/30 11:50:37;;;;;;;0.70;0.70;;;20.10;99.90;;;;;;4991991;28;20438;-66
2021/12/30 11:53:12;;;;;;;0.70;0.70;;;20.10;99.90;;;;;;4992665;28;20547;-66
2021/12/30 11:55:53;;;;;;;0.60;0.60;;;20.20;99.90;;;;;;4991802;28;20418;-66
2021/12/30 11:58:42;;;;;;;0.80;0.80;;;20.50;99.90;;;;;;4992570;28;20438;-67
2021/12/30 12:01:14;;;;;;;0.50;0.50;;;20.30;99.90;;;;;;4991972;28;20446;-67
2021/12/30 12:03:43;;;;;;;0.90;0.90;;;19.60;99.90;;;;;;4992314;28;20406;-66
2021/12/30 12:06:32;;;;;;;1.63;0.90;;;18.90;99.90;;;;;;4991643;28;20450;-67
2021/12/30 12:09:13;;;;;;;0.90;0.83;;;18.20;99.90;;;;;;4992501;28;20843;-67
2021/12/30 12:11:43;;;;;;;0.60;0.60;;;17.70;99.90;;;;;;4991773;28;20513;-66
2021/12/30 12:14:20;;;;;;;2.10;1.90;;;17.30;99.90;;;;;;4992393;28;20418;-66
2021/12/30 12:16:53;;;;;;;1.33;1.23;;;17.30;99.90;;;;;;4991689;28;20517;-65
2021/12/30 12:19:20;;;;;;;0.60;0.60;;;18.00;99.90;;;;;;4992298;28;20936;-66
2021/12/30 12:21:54;;;;;;;0.70;0.70;;;18.40;99.90;;;;;;4991717;28;20463;-66
2021/12/30 12:24:22;;;;;;;0.70;0.70;;;18.10;99.90;;;;;;4992269;28;20421;-66
2021/12/30 12:26:54;;;;;;;0.53;0.53;;;17.90;99.90;;;;;;4990919;28;20516;-66
2021/12/30 12:29:25;;;;;;;0.87;0.87;;;17.80;99.90;;;;;;4992249;28;20415;-66
2021/12/30 12:31:56;;;;;;;0.90;0.90;;;17.80;99.90;;;;;;4992121;28;20521;-66
2021/12/30 12:34:42;;;;;;;1.03;0.80;;;17.60;99.90;;;;;;4992155;28;20418;-66
2021/12/30 12:37:45;;;;;;;0.80;0.80;;;17.20;99.90;;;;;;4991919;28;20481;-66
2021/12/30 12:40:16;;;;;;;0.90;0.90;;;16.90;99.90;;;;;;4970353;28;20828;-66
2021/12/30 12:42:53;;;;;;;2.40;2.23;;;16.60;99.90;;;;;;4990553;28;20506;-67
2021/12/30 12:45:49;;;;;;;2.30;2.10;;;16.40;99.90;;;;;;4995465;28;20423;-66
2021/12/30 12:48:18;;;;;;;1.23;1.13;;;16.30;99.90;;;;;;4995597;28;20414;-66
2021/12/30 12:50:45;;;;;;;1.50;1.40;;;16.20;99.90;;;;;;4995517;28;20442;-66